Castelo, Brazil
Current Conditions -  °F | °C
As of 3:00 AM on Friday 19 Dec 2014 (Local Time) from SBTE Reporting Station
Broken Clouds Broken Clouds  
Wind Chill: 79°   Ceiling: 9000
Heat Index: 82°   Visibility: 6mi
Dew Point: 73°   Wind: 3mph
Humidity: 83%   Direction: 360°N
Pressure: 29.77"   Gusts: NA
Location:  4.62°S, 43.47°W
Report Text: SBTE 190600Z 36003KT 9999 SCT030 BKN090 26/23 Q1008
Loading
Personal Weather Stations






























Interactive Weather Map New forecast layout! Learn more

10-Day Weather Forecast

Advertisements
Track Severe Weather on mobile